createdAt,value
2023-03-20T00:02:04.624Z,7.70
2023-03-20T00:04:32.049Z,7.47
2023-03-20T00:06:59.329Z,7.97
2023-03-20T00:09:26.918Z,7.70
2023-03-20T00:11:55.820Z,7.68
2023-03-20T00:14:25.071Z,8.00
2023-03-20T00:16:53.002Z,8.95
2023-03-20T00:19:23.503Z,8.88
2023-03-20T00:21:52.166Z,9.20
2023-03-20T00:24:19.940Z,8.27
2023-03-20T00:26:49.183Z,9.77
2023-03-20T00:29:26.396Z,10.13
2023-03-20T00:31:54.919Z,10.07
2023-03-20T00:34:24.497Z,11.05
2023-03-20T00:36:52.578Z,9.43
2023-03-20T00:39:20.202Z,10.13
2023-03-20T00:47:18.304Z,8.23
2023-03-20T00:49:48.429Z,7.70
2023-03-20T00:52:17.728Z,9.25
2023-03-20T00:54:45.023Z,7.55
2023-03-20T00:57:16.323Z,8.32
2023-03-20T01:00:12.900Z,10.32
2023-03-20T01:02:40.377Z,8.55
2023-03-20T01:05:08.426Z,10.98
2023-03-20T01:07:35.715Z,8.63
2023-03-20T01:10:03.789Z,8.95
2023-03-20T01:12:31.145Z,9.32
2023-03-20T01:14:59.212Z,10.73
2023-03-20T01:17:28.920Z,9.65
2023-03-20T01:19:56.790Z,10.10
2023-03-20T01:22:24.382Z,8.38
2023-03-20T01:24:51.667Z,9.38
2023-03-20T01:27:20.058Z,9.57
2023-03-20T01:29:47.455Z,9.77
2023-03-20T01:32:17.685Z,9.50
2023-03-20T01:34:48.474Z,9.45
2023-03-20T01:37:19.288Z,7.82
2023-03-20T01:39:46.677Z,9.02
2023-03-20T01:42:16.299Z,8.27
2023-03-20T01:44:44.630Z,8.63
2023-03-20T01:47:18.304Z,8.30
2023-03-20T01:52:38.817Z,6.88
2023-03-20T01:55:06.774Z,7.50
2023-03-20T01:57:34.530Z,8.30
2023-03-20T02:00:06.138Z,7.72
2023-03-20T02:02:55.077Z,7.78
2023-03-20T02:05:42.964Z,7.75
2023-03-20T02:08:21.688Z,7.97
2023-03-20T02:10:49.942Z,8.18
2023-03-20T02:13:27.285Z,8.52
2023-03-20T02:18:39.540Z,8.38
2023-03-20T02:32:01.716Z,8.18
2023-03-20T02:37:47.449Z,10.05
2023-03-20T02:40:47.837Z,8.05
2023-03-20T02:48:46.249Z,9.05
2023-03-20T02:51:21.000Z,9.02
2023-03-20T02:53:53.751Z,8.65
2023-03-20T03:01:53.089Z,8.50
2023-03-20T03:04:27.397Z,8.35
2023-03-20T03:06:56.282Z,8.30
2023-03-20T03:09:31.890Z,9.10
2023-03-20T03:12:03.889Z,8.30
2023-03-20T03:17:28.967Z,8.90
2023-03-20T03:20:01.113Z,9.07
2023-03-20T03:22:34.615Z,8.13
2023-03-20T03:25:02.155Z,8.25
2023-03-20T03:27:41.665Z,8.35
2023-03-20T03:30:18.356Z,7.78
2023-03-20T03:32:50.110Z,7.82
2023-03-20T03:35:20.964Z,8.48
2023-03-20T03:37:59.038Z,8.32
2023-03-20T03:43:32.864Z,7.57
2023-03-20T03:46:05.733Z,6.60
2023-03-20T03:48:38.954Z,7.55
2023-03-20T03:51:10.629Z,7.63
2023-03-20T03:53:50.310Z,6.57
2023-03-20T03:56:21.355Z,7.35
2023-03-20T03:58:51.720Z,6.72
2023-03-20T04:01:21.078Z,7.07
2023-03-20T04:03:51.588Z,8.20
2023-03-20T04:06:19.933Z,8.43
2023-03-20T04:08:47.242Z,8.75
2023-03-20T04:11:24.591Z,6.80
2023-03-20T04:13:52.734Z,7.47
2023-03-20T04:16:22.920Z,8.13
2023-03-20T04:18:51.487Z,8.55
2023-03-20T04:21:19.556Z,9.50
2023-03-20T04:23:47.151Z,9.65
2023-03-20T04:26:14.910Z,9.00
2023-03-20T04:28:42.241Z,8.50
2023-03-20T04:31:30.032Z,8.35
2023-03-20T04:34:18.289Z,8.13
2023-03-20T04:36:58.589Z,8.35
2023-03-20T04:39:37.692Z,9.57
2023-03-20T04:42:06.238Z,8.50
2023-03-20T04:44:33.698Z,8.30
2023-03-20T04:47:02.671Z,8.10
2023-03-20T04:49:32.108Z,7.00
2023-03-20T04:52:00.260Z,9.57
2023-03-20T04:54:37.452Z,7.53
2023-03-20T04:57:04.777Z,7.00
2023-03-20T04:59:32.653Z,7.85
2023-03-20T05:02:00.048Z,7.43
2023-03-20T05:04:28.269Z,7.50
2023-03-20T05:06:55.837Z,7.90
2023-03-20T05:09:27.791Z,7.57
2023-03-20T05:11:56.550Z,6.72
2023-03-20T05:14:43.699Z,7.20
2023-03-20T05:17:25.363Z,7.25
2023-03-20T05:20:12.686Z,6.90
2023-03-20T05:22:59.896Z,6.50
2023-03-20T05:25:47.059Z,8.10
2023-03-20T05:28:33.587Z,6.85
2023-03-20T05:31:12.519Z,6.90
2023-03-20T05:33:59.752Z,6.82
2023-03-20T05:39:24.737Z,6.30
2023-03-20T05:42:05.689Z,6.50
2023-03-20T05:44:52.253Z,8.05
2023-03-20T05:47:39.382Z,7.03
2023-03-20T05:52:57.610Z,7.57
2023-03-20T05:55:39.784Z,7.05
2023-03-20T05:58:26.940Z,6.22
2023-03-20T06:01:16.590Z,7.38
2023-03-20T06:04:03.842Z,5.88
2023-03-20T06:06:51.148Z,7.30
2023-03-20T06:09:19.392Z,6.18
2023-03-20T06:11:47.331Z,7.95
2023-03-20T06:14:17.547Z,8.20
2023-03-20T06:16:50.901Z,7.18
2023-03-20T06:19:18.323Z,8.07
2023-03-20T06:21:46.517Z,8.13
2023-03-20T06:24:17.963Z,8.23
2023-03-20T06:26:45.492Z,8.77
2023-03-20T06:29:14.217Z,7.45
2023-03-20T06:31:41.808Z,6.72
2023-03-20T06:34:14.240Z,7.55
2023-03-20T06:36:45.669Z,8.38
2023-03-20T06:39:19.509Z,7.40
2023-03-20T06:41:47.616Z,7.35
2023-03-20T06:44:15.033Z,7.20
2023-03-20T06:47:02.247Z,6.50
2023-03-20T06:49:31.080Z,7.60
2023-03-20T06:51:59.621Z,7.47
2023-03-20T06:54:27.958Z,6.90
2023-03-20T06:56:56.117Z,7.55
2023-03-20T06:59:23.985Z,9.15
2023-03-20T07:01:56.425Z,8.40
2023-03-20T07:04:24.495Z,7.78
2023-03-20T07:06:55.355Z,6.90
2023-03-20T07:09:23.636Z,7.53
2023-03-20T07:11:50.922Z,7.93
2023-03-20T07:14:18.792Z,8.52
2023-03-20T07:16:57.999Z,8.18
2023-03-20T07:19:25.775Z,8.30
2023-03-20T07:22:02.109Z,8.43
2023-03-20T07:24:35.146Z,8.35
2023-03-20T07:27:02.639Z,8.63
2023-03-20T07:29:31.748Z,8.88
2023-03-20T07:32:01.313Z,7.45
2023-03-20T07:34:36.323Z,8.00
2023-03-20T07:37:05.203Z,9.52
2023-03-20T07:39:33.890Z,8.43
2023-03-20T07:42:21.286Z,8.82
2023-03-20T07:44:57.772Z,8.48
2023-03-20T07:47:25.199Z,8.95
2023-03-20T07:49:52.540Z,8.48
2023-03-20T07:52:19.922Z,8.60
2023-03-20T07:54:47.337Z,8.75
2023-03-20T07:57:15.041Z,9.60
2023-03-20T07:59:42.326Z,8.55
2023-03-20T08:02:15.097Z,9.32
2023-03-20T08:04:43.163Z,7.43
2023-03-20T08:07:11.196Z,8.60
2023-03-20T08:09:38.923Z,7.25
2023-03-20T08:12:06.642Z,8.27
2023-03-20T08:14:34.139Z,7.55
2023-03-20T08:17:13.799Z,7.85
2023-03-20T08:19:42.062Z,7.78
2023-03-20T08:22:09.411Z,8.32
2023-03-20T08:24:36.941Z,8.70
2023-03-20T08:27:04.469Z,8.25
2023-03-20T08:29:31.916Z,8.73
2023-03-20T08:31:59.425Z,7.18
2023-03-20T08:34:27.366Z,6.70
2023-03-20T08:36:54.753Z,6.75
2023-03-20T08:39:22.213Z,6.70
2023-03-20T08:41:49.680Z,8.48
2023-03-20T08:44:17.299Z,6.95
2023-03-20T08:46:46.588Z,8.38
2023-03-20T08:49:14.062Z,8.52
2023-03-20T08:51:41.454Z,7.70
2023-03-20T08:54:08.749Z,7.43
2023-03-20T08:56:36.180Z,7.72
2023-03-20T08:59:04.014Z,8.25
2023-03-20T09:01:48.018Z,7.50
2023-03-20T09:04:16.411Z,7.05
2023-03-20T09:06:43.746Z,7.55
2023-03-20T09:09:11.032Z,8.43
2023-03-20T09:11:38.387Z,7.75
2023-03-20T09:14:05.691Z,8.20
2023-03-20T09:16:33.491Z,7.53
2023-03-20T09:19:01.657Z,8.32
2023-03-20T09:21:28.974Z,8.30
2023-03-20T09:23:56.360Z,7.88
2023-03-20T09:26:23.691Z,6.82
2023-03-20T09:28:51.005Z,8.27
2023-03-20T09:31:18.408Z,7.32
2023-03-20T09:33:45.835Z,7.00
2023-03-20T09:36:13.479Z,7.60
2023-03-20T09:38:42.319Z,8.35
2023-03-20T09:41:28.474Z,7.28
2023-03-20T09:52:21.452Z,8.50
2023-03-20T09:54:54.752Z,7.32
2023-03-20T09:57:26.457Z,7.25
2023-03-20T09:59:58.793Z,8.18
2023-03-20T10:02:38.929Z,9.18
2023-03-20T10:05:15.972Z,8.52
2023-03-20T10:07:43.590Z,8.30
2023-03-20T10:10:15.125Z,8.55
2023-03-20T10:15:33.194Z,6.72
2023-03-20T10:18:25.295Z,7.13
2023-03-20T10:23:43.791Z,6.38
2023-03-20T10:26:13.452Z,7.22
2023-03-20T10:28:48.404Z,6.35
2023-03-20T10:39:39.380Z,6.32
2023-03-20T10:42:15.984Z,6.75
2023-03-20T10:44:49.370Z,6.78
2023-03-20T10:47:19.505Z,6.55
2023-03-20T10:49:52.401Z,7.03
2023-03-20T10:52:24.606Z,6.72
2023-03-20T10:54:59.412Z,6.07
2023-03-20T10:57:29.614Z,5.97
2023-03-20T10:59:58.453Z,6.93
2023-03-20T11:02:30.293Z,6.22
2023-03-20T11:05:28.092Z,5.88
2023-03-20T11:08:15.608Z,6.32
2023-03-20T11:10:44.774Z,5.95
2023-03-20T11:15:55.906Z,6.82
2023-03-20T11:18:29.606Z,6.82
2023-03-20T11:20:58.142Z,6.22
2023-03-20T11:23:30.484Z,5.80
2023-03-20T11:28:39.380Z,5.22
2023-03-20T11:37:09.726Z,5.57
2023-03-20T11:39:40.367Z,5.75
2023-03-20T11:42:24.945Z,5.97
2023-03-20T11:45:02.854Z,5.50
2023-03-20T11:47:34.893Z,7.25
2023-03-20T11:50:05.914Z,8.07
2023-03-20T11:52:44.458Z,7.03
2023-03-20T11:55:30.626Z,6.40
2023-03-20T11:57:59.998Z,6.47
2023-03-20T12:00:30.988Z,6.82
2023-03-20T12:02:58.335Z,5.35
2023-03-20T12:05:36.928Z,5.55
2023-03-20T12:08:13.986Z,5.78
2023-03-20T12:10:43.417Z,5.72
2023-03-20T12:15:59.482Z,6.40
2023-03-20T12:21:39.745Z,8.33
2023-03-20T12:24:34.074Z,5.10
2023-03-20T12:35:28.319Z,5.97
2023-03-20T12:37:56.049Z,5.57
2023-03-20T12:40:32.904Z,5.95
2023-03-20T12:43:16.121Z,5.57
2023-03-20T12:45:59.038Z,6.38
2023-03-20T12:48:49.572Z,5.80
2023-03-20T12:51:41.818Z,5.70
2023-03-20T13:05:37.212Z,5.03
2023-03-20T13:10:52.308Z,5.82
2023-03-20T13:21:28.437Z,5.88
2023-03-20T13:30:35.733Z,7.00
2023-03-20T13:33:31.190Z,5.25
2023-03-20T13:36:12.919Z,4.88
2023-03-20T13:38:45.593Z,5.07
2023-03-20T13:41:14.187Z,5.70
2023-03-20T13:43:46.308Z,6.22
2023-03-20T13:49:19.745Z,4.97
2023-03-20T14:05:37.111Z,6.18
2023-03-20T14:08:23.004Z,5.97
2023-03-20T14:14:09.157Z,5.45
2023-03-20T14:16:36.896Z,5.53
2023-03-20T14:19:17.068Z,5.00
2023-03-20T14:21:48.900Z,5.88
2023-03-20T14:24:17.555Z,5.72
2023-03-20T14:26:49.464Z,5.50
2023-03-20T14:32:22.548Z,6.25
2023-03-20T14:40:25.507Z,5.57
2023-03-20T14:48:33.864Z,5.13
2023-03-20T14:51:40.950Z,5.68
2023-03-20T14:54:29.265Z,6.00
2023-03-20T14:56:57.046Z,5.88
2023-03-20T14:59:24.987Z,6.07
2023-03-20T15:04:39.857Z,6.43
2023-03-20T15:07:15.271Z,6.10
2023-03-20T15:09:45.960Z,6.75
2023-03-20T15:12:17.978Z,6.70
2023-03-20T15:14:51.888Z,5.78
2023-03-20T15:17:24.518Z,7.05
2023-03-20T15:19:51.811Z,6.63
2023-03-20T15:22:20.819Z,6.20
2023-03-20T15:24:57.431Z,6.65
2023-03-20T15:27:29.756Z,6.93
2023-03-20T15:29:57.787Z,7.15
2023-03-20T15:32:25.401Z,6.65
2023-03-20T15:34:53.729Z,6.80
2023-03-20T15:37:24.400Z,5.78
2023-03-20T15:39:55.740Z,6.93
2023-03-20T15:42:25.853Z,5.65
2023-03-20T15:44:55.505Z,5.10
2023-03-20T15:47:24.828Z,5.93
2023-03-20T15:49:55.650Z,6.05
2023-03-20T15:55:07.945Z,6.13
2023-03-20T15:57:37.955Z,8.02
2023-03-20T16:00:07.716Z,7.45
2023-03-20T16:02:36.844Z,6.97
2023-03-20T16:05:04.874Z,7.55
2023-03-20T16:07:33.340Z,6.05
2023-03-20T16:10:00.946Z,6.13
2023-03-20T16:12:28.623Z,5.20
2023-03-20T16:14:56.425Z,5.95
2023-03-20T16:17:25.662Z,5.32
2023-03-20T16:19:53.693Z,5.90
2023-03-20T16:22:28.802Z,5.88
2023-03-20T16:24:59.950Z,5.72
2023-03-20T16:27:29.822Z,6.15
2023-03-20T16:29:57.598Z,6.45
2023-03-20T16:35:04.898Z,6.03
2023-03-20T16:38:02.669Z,7.43
2023-03-20T16:40:36.868Z,6.88
2023-03-20T16:43:16.335Z,6.13
2023-03-20T16:45:47.383Z,6.13
2023-03-20T16:50:59.679Z,6.03
2023-03-20T16:53:31.109Z,9.50
2023-03-20T16:55:59.516Z,11.48
2023-03-20T16:58:30.508Z,7.10
2023-03-20T17:01:01.699Z,6.75
2023-03-20T17:03:36.597Z,7.03
2023-03-20T17:06:11.214Z,7.40
2023-03-20T17:08:42.335Z,6.75
2023-03-20T17:11:24.473Z,6.75
2023-03-20T17:13:51.791Z,6.57
2023-03-20T17:16:21.622Z,6.57
2023-03-20T17:19:02.270Z,6.65
2023-03-20T17:21:30.319Z,6.72
2023-03-20T17:23:58.168Z,5.97
2023-03-20T17:26:25.878Z,6.75
2023-03-20T17:28:53.258Z,6.22
2023-03-20T17:31:20.857Z,6.30
2023-03-20T17:33:48.402Z,6.30
2023-03-20T17:36:21.770Z,6.35
2023-03-20T17:38:49.270Z,6.88
2023-03-20T17:41:18.517Z,7.28
2023-03-20T17:43:46.226Z,7.05
2023-03-20T17:46:26.906Z,7.03
2023-03-20T17:49:06.426Z,7.40
2023-03-20T17:51:35.592Z,5.65
2023-03-20T17:54:03.071Z,6.35
2023-03-20T17:56:33.062Z,6.60
2023-03-20T17:59:01.996Z,6.63
2023-03-20T18:01:32.546Z,7.25
2023-03-20T18:04:00.313Z,6.65
2023-03-20T18:06:30.590Z,6.57
2023-03-20T18:08:59.066Z,6.95
2023-03-20T18:11:27.005Z,7.30
2023-03-20T18:13:54.466Z,6.35
2023-03-20T18:16:24.626Z,6.50
2023-03-20T18:18:52.909Z,6.28
2023-03-20T18:21:20.736Z,6.22
2023-03-20T18:23:48.356Z,7.20
2023-03-20T18:26:25.845Z,6.10
2023-03-20T18:28:55.037Z,6.20
2023-03-20T18:31:22.983Z,6.85
2023-03-20T18:33:52.505Z,5.82
2023-03-20T18:36:22.785Z,7.20
2023-03-20T18:38:51.144Z,6.25
2023-03-20T18:41:18.643Z,5.25
2023-03-20T18:43:47.023Z,6.47
2023-03-20T18:46:17.008Z,6.05
2023-03-20T18:48:44.689Z,6.22
2023-03-20T18:51:12.167Z,5.75
2023-03-20T18:53:41.324Z,6.25
2023-03-20T18:56:19.657Z,6.72
2023-03-20T18:58:48.070Z,6.60
2023-03-20T19:01:16.778Z,5.85
2023-03-20T19:03:45.119Z,6.20
2023-03-20T19:06:21.498Z,6.32
2023-03-20T19:08:50.049Z,5.38
2023-03-20T19:11:21.079Z,5.97
2023-03-20T19:13:51.411Z,6.45
2023-03-20T19:18:58.878Z,6.65
2023-03-20T19:21:26.662Z,6.25
2023-03-20T19:24:33.731Z,6.25
2023-03-20T19:27:01.231Z,6.43
2023-03-20T19:29:28.671Z,5.88
2023-03-20T19:31:56.412Z,6.68
2023-03-20T19:35:10.926Z,6.07
2023-03-20T19:37:12.930Z,5.72
2023-03-20T19:39:40.441Z,6.03
2023-03-20T19:42:30.375Z,5.75
2023-03-20T19:44:55.173Z,5.80
2023-03-20T19:47:22.516Z,4.95
2023-03-20T19:49:50.397Z,6.15
2023-03-20T19:52:28.570Z,5.72
2023-03-20T19:55:02.555Z,5.88
2023-03-20T19:57:30.993Z,5.57
2023-03-20T20:00:43.870Z,7.13
2023-03-20T20:02:46.614Z,6.70
2023-03-20T20:05:19.549Z,8.05
2023-03-20T20:08:17.171Z,7.43
2023-03-20T20:10:38.049Z,7.38
2023-03-20T20:13:06.643Z,6.75
2023-03-20T20:15:38.772Z,6.88
2023-03-20T20:18:07.808Z,6.30
2023-03-20T20:21:10.622Z,6.38
2023-03-20T20:23:26.456Z,6.88
2023-03-20T20:25:55.667Z,7.10
2023-03-20T20:28:24.299Z,7.30
2023-03-20T20:30:55.919Z,6.75
2023-03-20T20:33:28.780Z,6.30
2023-03-20T20:36:42.219Z,7.07
2023-03-20T20:38:51.002Z,6.50
2023-03-20T20:41:19.013Z,6.78
2023-03-20T20:44:14.697Z,6.68
2023-03-20T20:46:35.008Z,6.32
2023-03-20T20:49:18.173Z,6.32
2023-03-20T20:51:46.332Z,6.07
2023-03-20T20:54:14.348Z,7.18
2023-03-20T20:56:41.894Z,6.47
2023-03-20T20:59:09.230Z,6.70
2023-03-20T21:01:36.678Z,5.65
2023-03-20T21:04:04.140Z,5.55
2023-03-20T21:07:03.391Z,5.82
2023-03-20T21:09:18.971Z,5.78
2023-03-20T21:11:46.924Z,6.15
2023-03-20T21:14:14.834Z,5.90
2023-03-20T21:16:42.201Z,6.15
2023-03-20T21:19:09.545Z,6.00
2023-03-20T21:21:39.388Z,6.05
2023-03-20T21:24:30.424Z,5.75
2023-03-20T21:26:59.462Z,5.85
2023-03-20T21:29:26.932Z,5.88
2023-03-20T21:31:54.430Z,6.93
2023-03-20T21:34:22.126Z,6.00
2023-03-20T21:36:51.432Z,5.43
2023-03-20T21:39:19.278Z,5.32
2023-03-20T21:41:46.852Z,6.63
2023-03-20T21:44:17.820Z,5.80
2023-03-20T21:47:22.770Z,5.70
2023-03-20T22:07:17.861Z,5.20
2023-03-20T22:12:46.434Z,6.68
2023-03-20T22:15:33.999Z,6.97
2023-03-20T22:18:12.133Z,6.55
2023-03-20T22:23:54.853Z,6.38
2023-03-20T22:29:40.940Z,6.78
2023-03-20T22:35:38.471Z,8.23
2023-03-20T22:46:03.303Z,6.03
2023-03-20T22:48:33.125Z,6.38
2023-03-20T22:51:00.359Z,6.15
2023-03-20T22:53:27.653Z,6.60
2023-03-20T22:55:54.939Z,8.10
2023-03-20T22:58:22.358Z,6.47
2023-03-20T23:00:49.705Z,6.68
2023-03-20T23:03:29.444Z,6.60
2023-03-20T23:06:09.895Z,6.32
2023-03-20T23:08:48.687Z,6.82
2023-03-20T23:11:20.236Z,7.10
2023-03-20T23:13:47.575Z,6.50
2023-03-20T23:16:15.263Z,6.38
2023-03-20T23:18:42.673Z,6.90
2023-03-20T23:21:10.502Z,7.80
2023-03-20T23:23:38.714Z,7.00
2023-03-20T23:26:15.768Z,6.78
2023-03-20T23:28:45.389Z,7.13
2023-03-20T23:31:18.416Z,6.65
2023-03-20T23:33:49.465Z,7.43
2023-03-20T23:36:34.546Z,7.47
2023-03-20T23:39:03.899Z,6.82
2023-03-20T23:42:01.742Z,7.47
2023-03-20T23:44:18.611Z,9.13
2023-03-20T23:46:48.144Z,6.65
2023-03-20T23:49:16.730Z,6.45
2023-03-20T23:51:44.306Z,7.80
2023-03-20T23:54:12.254Z,7.30
2023-03-20T23:56:40.017Z,8.23
2023-03-20T23:59:20.216Z,6.97
